createdAt,value
2023-04-09T00:02:47.259Z,11.15
2023-04-09T00:06:47.500Z,11.40
2023-04-09T00:10:47.996Z,11.31
2023-04-09T00:14:48.199Z,11.49
2023-04-09T00:18:52.058Z,11.41
2023-04-09T00:22:52.674Z,11.23
2023-04-09T00:26:53.664Z,11.11
2023-04-09T00:30:53.813Z,10.91
2023-04-09T00:34:56.925Z,11.06
2023-04-09T00:38:57.216Z,10.95
2023-04-09T00:42:57.438Z,11.00
2023-04-09T00:46:58.397Z,10.98
2023-04-09T00:51:01.210Z,11.00
2023-04-09T00:55:04.495Z,10.68
2023-04-09T00:59:05.667Z,10.77
2023-04-09T01:03:09.238Z,10.66
2023-04-09T01:07:23.647Z,10.59
2023-04-09T01:11:34.955Z,10.36
2023-04-09T01:15:42.177Z,10.13
2023-04-09T01:19:54.078Z,9.82
2023-04-09T01:24:12.826Z,9.65
2023-04-09T01:28:26.021Z,9.52
2023-04-09T01:32:32.571Z,9.30
2023-04-09T01:36:36.384Z,9.26
2023-04-09T01:40:36.768Z,9.27
2023-04-09T01:44:42.161Z,9.32
2023-04-09T01:48:43.217Z,9.37
2023-04-09T01:52:43.913Z,8.97
2023-04-09T01:56:45.739Z,8.86
2023-04-09T02:00:52.298Z,8.67
2023-04-09T02:04:58.799Z,8.64
2023-04-09T02:09:04.238Z,8.62
2023-04-09T02:13:08.680Z,8.44
2023-04-09T02:17:12.076Z,8.08
2023-04-09T02:21:14.135Z,7.88
2023-04-09T02:25:14.863Z,7.83
2023-04-09T02:29:15.128Z,8.01
2023-04-09T02:33:18.122Z,8.03
2023-04-09T02:37:18.475Z,7.73
2023-04-09T02:41:19.959Z,7.71
2023-04-09T02:45:20.287Z,7.47
2023-04-09T02:49:23.407Z,7.44
2023-04-09T02:53:24.348Z,7.48
2023-04-09T02:57:24.539Z,7.47
2023-04-09T03:01:24.865Z,7.30
2023-04-09T03:05:28.042Z,7.08
2023-04-09T03:09:29.161Z,7.09
2023-04-09T03:13:31.064Z,7.11
2023-04-09T03:17:32.232Z,6.96
2023-04-09T03:21:34.976Z,6.87
2023-04-09T03:25:35.902Z,6.78
2023-04-09T03:29:44.428Z,6.74
2023-04-09T03:33:44.826Z,6.69
2023-04-09T03:37:48.141Z,6.80
2023-04-09T03:41:51.595Z,6.66
2023-04-09T03:45:52.413Z,6.61
2023-04-09T03:49:56.783Z,6.48
2023-04-09T03:54:03.256Z,6.41
2023-04-09T03:58:04.327Z,6.22
2023-04-09T04:02:07.844Z,5.96
2023-04-09T04:06:12.683Z,6.21
2023-04-09T04:10:33.985Z,6.24
2023-04-09T04:14:34.693Z,6.17
2023-04-09T04:18:41.817Z,6.15
2023-04-09T04:22:42.432Z,6.19
2023-04-09T04:26:45.949Z,6.17
2023-04-09T04:30:50.446Z,6.16
2023-04-09T04:34:52.786Z,6.04
2023-04-09T04:39:00.010Z,5.66
2023-04-09T04:43:20.446Z,5.99
2023-04-09T04:47:22.286Z,5.95
2023-04-09T04:51:22.601Z,5.89
2023-04-09T04:55:39.715Z,6.09
2023-04-09T04:59:44.363Z,5.87
2023-04-09T05:03:46.759Z,5.89
2023-04-09T05:08:00.650Z,6.06
2023-04-09T05:12:01.465Z,6.09
2023-04-09T05:16:04.524Z,6.36
2023-04-09T05:20:07.645Z,6.46
2023-04-09T05:24:18.808Z,6.29
2023-04-09T05:28:19.473Z,6.02
2023-04-09T05:32:28.053Z,6.41
2023-04-09T05:36:29.418Z,6.14
2023-04-09T05:40:29.873Z,6.51
2023-04-09T05:44:30.409Z,6.58
2023-04-09T05:48:41.670Z,6.81
2023-04-09T05:52:41.984Z,6.96
2023-04-09T05:56:45.772Z,6.97
2023-04-09T06:00:46.241Z,6.83
2023-04-09T06:04:52.170Z,7.00
2023-04-09T06:08:52.380Z,7.24
2023-04-09T06:12:52.608Z,7.35
2023-04-09T06:16:52.767Z,7.62
2023-04-09T06:21:05.779Z,7.65
2023-04-09T06:25:06.824Z,7.95
2023-04-09T06:29:07.171Z,8.23
2023-04-09T06:33:07.420Z,8.59
2023-04-09T06:37:10.357Z,8.57
2023-04-09T06:41:12.922Z,9.00
2023-04-09T06:45:13.860Z,9.29
2023-04-09T06:49:13.980Z,9.53
2023-04-09T06:53:18.490Z,9.71
2023-04-09T06:57:18.711Z,10.04
2023-04-09T07:01:20.094Z,10.37
2023-04-09T07:05:20.485Z,10.52
2023-04-09T07:09:23.258Z,10.53
2023-04-09T07:13:23.570Z,10.53
2023-04-09T07:17:23.765Z,10.69
2023-04-09T07:21:23.910Z,10.97
2023-04-09T07:25:27.047Z,11.15
2023-04-09T07:29:27.623Z,11.36
2023-04-09T07:33:27.890Z,11.81
2023-04-09T07:37:29.004Z,12.13
2023-04-09T07:41:31.858Z,12.91
2023-04-09T07:45:32.121Z,13.22
2023-04-09T07:49:32.463Z,13.72
2023-04-09T07:53:32.609Z,14.15
2023-04-09T07:57:37.128Z,14.92
2023-04-09T08:01:39.838Z,15.60
2023-04-09T08:05:40.893Z,16.50
2023-04-09T08:09:41.226Z,16.35
2023-04-09T08:13:44.231Z,16.44
2023-04-09T08:17:44.594Z,16.60
2023-04-09T08:21:46.774Z,16.36
2023-04-09T08:25:47.012Z,17.14
2023-04-09T08:29:49.915Z,18.35
2023-04-09T08:33:50.131Z,18.10
2023-04-09T08:37:50.857Z,17.94
2023-04-09T08:41:51.302Z,17.70
2023-04-09T08:45:57.986Z,17.45
2023-04-09T08:49:58.264Z,16.92
2023-04-09T08:54:03.249Z,17.02
2023-04-09T08:58:07.527Z,17.47
2023-04-09T09:02:14.345Z,17.80
2023-04-09T09:06:25.246Z,18.18
2023-04-09T09:10:42.160Z,17.93
2023-04-09T09:14:42.425Z,18.85
2023-04-09T09:18:48.364Z,18.45
2023-04-09T09:22:56.859Z,19.68
2023-04-09T09:26:59.051Z,20.07
2023-04-09T09:31:12.171Z,21.02
2023-04-09T09:35:15.581Z,22.00
2023-04-09T09:39:17.891Z,21.91
2023-04-09T09:43:18.472Z,21.97
2023-04-09T09:47:21.757Z,21.88
2023-04-09T09:51:31.383Z,22.42
2023-04-09T09:55:35.132Z,21.66
2023-04-09T09:59:43.597Z,20.48
2023-04-09T10:03:48.457Z,21.01
2023-04-09T10:07:52.206Z,21.36
2023-04-09T10:11:52.877Z,22.01
2023-04-09T10:15:54.288Z,21.81
2023-04-09T10:20:04.484Z,20.81
2023-04-09T10:24:09.486Z,22.20
2023-04-09T10:28:21.090Z,24.14
2023-04-09T10:32:28.591Z,26.22
2023-04-09T10:36:29.462Z,24.91
2023-04-09T10:40:32.812Z,23.28
2023-04-09T10:44:36.220Z,21.63
2023-04-09T10:48:37.413Z,20.72
2023-04-09T10:52:37.624Z,22.38
2023-04-09T10:56:40.444Z,25.21
2023-04-09T11:00:43.662Z,25.45
2023-04-09T11:05:02.526Z,25.17
2023-04-09T11:09:05.351Z,24.89
2023-04-09T11:13:08.815Z,25.62
2023-04-09T11:17:09.376Z,26.02
2023-04-09T11:21:10.475Z,27.00
2023-04-09T11:25:11.689Z,26.01
2023-04-09T11:29:14.504Z,25.35
2023-04-09T11:33:15.621Z,24.16
2023-04-09T11:37:19.067Z,23.27
2023-04-09T11:41:19.261Z,22.06
2023-04-09T11:45:23.846Z,22.20
2023-04-09T11:49:25.215Z,22.66
2023-04-09T11:53:26.597Z,23.04
2023-04-09T11:57:26.736Z,22.46
2023-04-09T12:01:34.894Z,24.26
2023-04-09T12:05:40.611Z,26.01
2023-04-09T12:09:51.406Z,26.68
2023-04-09T12:13:51.576Z,26.56
2023-04-09T12:17:58.601Z,23.70
2023-04-09T12:21:59.627Z,23.24
2023-04-09T12:26:02.488Z,25.19
2023-04-09T12:30:02.841Z,25.99
2023-04-09T12:34:05.668Z,26.80
2023-04-09T12:38:05.937Z,27.20
2023-04-09T12:42:06.495Z,29.18
2023-04-09T12:46:07.234Z,29.34
2023-04-09T12:50:13.173Z,28.23
2023-04-09T12:54:13.376Z,28.30
2023-04-09T12:58:13.594Z,27.10
2023-04-09T13:02:15.366Z,26.82
2023-04-09T13:06:18.216Z,26.74
2023-04-09T13:10:18.589Z,25.49
2023-04-09T13:14:18.760Z,23.89
2023-04-09T13:18:18.898Z,22.33
2023-04-09T13:22:21.976Z,22.07
2023-04-09T13:26:22.115Z,22.31
2023-04-09T13:30:24.741Z,22.99
2023-04-09T13:34:25.072Z,23.90
2023-04-09T13:38:27.975Z,25.67
2023-04-09T13:42:28.152Z,26.77
2023-04-09T13:46:28.399Z,26.36
2023-04-09T13:50:28.875Z,25.70
2023-04-09T13:54:31.721Z,23.83
2023-04-09T13:58:31.840Z,22.50
2023-04-09T14:02:32.305Z,21.73
2023-04-09T14:06:32.732Z,21.20
2023-04-09T14:10:36.110Z,19.80
2023-04-09T14:14:36.217Z,19.28
2023-04-09T14:18:36.583Z,19.53
2023-04-09T14:22:36.798Z,20.26
2023-04-09T14:26:39.644Z,20.73
2023-04-09T14:30:39.864Z,22.22
2023-04-09T14:34:40.173Z,22.67
2023-04-09T14:38:40.929Z,22.85
2023-04-09T14:42:44.558Z,22.92
2023-04-09T14:46:45.670Z,23.15
2023-04-09T14:50:46.764Z,21.85
2023-04-09T14:54:47.377Z,21.07
2023-04-09T14:58:51.123Z,21.04
2023-04-09T15:02:51.728Z,20.98
2023-04-09T15:06:52.424Z,23.18
2023-04-09T15:10:52.635Z,25.06
2023-04-09T15:14:55.824Z,25.25
2023-04-09T15:18:58.998Z,24.54
2023-04-09T15:22:59.231Z,22.81
2023-04-09T15:26:59.705Z,22.25
2023-04-09T15:31:02.713Z,21.02
2023-04-09T15:35:02.962Z,19.43
2023-04-09T15:39:03.815Z,18.88
2023-04-09T15:43:05.311Z,18.55
2023-04-09T15:47:11.502Z,18.13
2023-04-09T15:51:13.890Z,17.82
2023-04-09T15:55:14.980Z,17.49
2023-04-09T15:59:17.929Z,17.53
2023-04-09T16:03:22.267Z,17.48
2023-04-09T16:07:22.919Z,17.49
2023-04-09T16:11:23.179Z,17.49
2023-04-09T16:15:26.005Z,17.70
2023-04-09T16:19:28.918Z,17.75
2023-04-09T16:23:30.931Z,17.70
2023-04-09T16:27:31.076Z,17.92
2023-04-09T16:31:31.260Z,17.89
2023-04-09T16:35:34.018Z,17.93
2023-04-09T16:39:34.474Z,17.97
2023-04-09T16:43:34.684Z,18.11
2023-04-09T16:47:35.075Z,18.24
2023-04-09T16:51:38.440Z,18.06
2023-04-09T16:55:38.964Z,18.14
2023-04-09T16:59:40.936Z,17.85
2023-04-09T17:03:41.603Z,17.68
2023-04-09T17:07:44.800Z,17.31
2023-04-09T17:11:44.939Z,16.96
2023-04-09T17:15:45.097Z,16.63
2023-04-09T17:19:45.326Z,16.57
2023-04-09T17:23:48.009Z,16.21
2023-04-09T17:27:48.152Z,15.83
2023-04-09T17:31:48.990Z,15.91
2023-04-09T17:35:53.236Z,15.88
2023-04-09T17:40:07.558Z,15.41
2023-04-09T17:44:11.055Z,15.44
2023-04-09T17:48:17.321Z,15.20
2023-04-09T17:52:17.877Z,15.03
2023-04-09T17:56:22.888Z,14.87
2023-04-09T18:00:23.429Z,14.68
2023-04-09T18:04:24.520Z,14.58
2023-04-09T18:08:25.471Z,14.15
2023-04-09T18:12:28.808Z,13.97
2023-04-09T18:16:30.551Z,13.71
2023-04-09T18:20:35.676Z,13.69
2023-04-09T18:24:42.400Z,13.49
2023-04-09T18:28:47.644Z,13.45
2023-04-09T18:32:52.037Z,13.29
2023-04-09T18:36:59.206Z,13.00
2023-04-09T18:41:04.517Z,12.79
2023-04-09T18:45:12.787Z,12.80
2023-04-09T18:49:18.235Z,12.38
2023-04-09T18:53:26.923Z,12.78
2023-04-09T18:57:38.230Z,12.78
2023-04-09T19:01:45.929Z,12.56
2023-04-09T19:05:46.870Z,12.76
2023-04-09T19:09:56.728Z,12.61
2023-04-09T19:13:59.950Z,12.49
2023-04-09T19:18:04.535Z,12.33
2023-04-09T19:22:05.412Z,12.25
2023-04-09T19:26:09.189Z,12.19
2023-04-09T19:30:13.572Z,12.27
2023-04-09T19:34:17.103Z,12.30
2023-04-09T19:38:18.406Z,12.24
2023-04-09T19:42:19.284Z,12.12
2023-04-09T19:46:20.019Z,12.01
2023-04-09T19:50:23.705Z,11.96
2023-04-09T19:54:25.330Z,11.74
2023-04-09T19:58:26.583Z,11.71
2023-04-09T20:02:28.830Z,11.62
2023-04-09T20:06:32.284Z,11.31
2023-04-09T20:10:35.596Z,11.01
2023-04-09T20:14:38.369Z,11.09
2023-04-09T20:18:39.251Z,10.94
2023-04-09T20:22:48.001Z,10.84
2023-04-09T20:26:50.248Z,10.84
2023-04-09T20:30:59.760Z,10.90
2023-04-09T20:35:00.332Z,10.93
2023-04-09T20:39:05.338Z,10.85
2023-04-09T20:43:09.150Z,10.95
2023-04-09T20:47:12.120Z,10.84
2023-04-09T20:51:19.328Z,10.75
2023-04-09T20:55:22.903Z,10.65
2023-04-09T20:59:25.250Z,10.71
2023-04-09T21:03:25.794Z,10.49
2023-04-09T21:07:27.594Z,10.46
2023-04-09T21:11:31.410Z,10.24
2023-04-09T21:15:32.195Z,10.07
2023-04-09T21:19:33.903Z,9.97
2023-04-09T21:23:35.626Z,9.84
2023-04-09T21:27:38.661Z,9.76
2023-04-09T21:31:39.783Z,9.72
2023-04-09T21:35:40.469Z,9.67
2023-04-09T21:39:41.608Z,9.54
2023-04-09T21:43:44.750Z,9.58
2023-04-09T21:47:45.803Z,9.51
2023-04-09T21:51:49.001Z,9.50
2023-04-09T21:55:49.715Z,9.44
2023-04-09T21:59:53.122Z,9.40
2023-04-09T22:03:53.638Z,9.24
2023-04-09T22:07:54.364Z,9.12
2023-04-09T22:11:55.013Z,9.14
2023-04-09T22:15:58.262Z,9.21
2023-04-09T22:19:58.851Z,9.12
2023-04-09T22:23:59.640Z,8.91
2023-04-09T22:28:00.348Z,8.78
2023-04-09T22:32:03.997Z,8.75
2023-04-09T22:36:04.390Z,8.76
2023-04-09T22:40:05.857Z,8.72
2023-04-09T22:44:06.906Z,8.59
2023-04-09T22:48:10.137Z,8.62
2023-04-09T22:52:11.582Z,8.79
2023-04-09T22:56:13.054Z,8.66
2023-04-09T23:00:15.112Z,8.66
2023-04-09T23:04:23.259Z,8.68
2023-04-09T23:08:23.911Z,8.71
2023-04-09T23:12:24.681Z,8.48
2023-04-09T23:16:25.589Z,8.26
2023-04-09T23:20:30.265Z,8.28
2023-04-09T23:24:31.201Z,8.30
2023-04-09T23:28:32.013Z,8.22
2023-04-09T23:32:32.671Z,8.16
2023-04-09T23:36:36.386Z,8.22
2023-04-09T23:40:36.757Z,8.27
2023-04-09T23:44:37.573Z,8.28
2023-04-09T23:48:38.007Z,8.32
2023-04-09T23:52:42.264Z,8.19
2023-04-09T23:56:44.281Z,8.30
